Terminal Aerodrome Forecast
Issued by NWS

Home | Current Version | Previous Version | Graphics & Text | Print | Product List | Glossary On
Versions: 1 2 3 4 5 6 7 8 9 10 11 12 13 14 15 16
022
FTUS43 KGRB 262334
TAFMTW
TAF
KMTW 262334Z 2700/2724 19008KT P6SM SCT050 SCT100
     FM270100 23005KT P6SM SCT100 SCT250
     FM270900 27004KT P6SM VCSH SCT070 BKN120
     FM271400 30005KT P6SM VCSH SCT060 OVC120
     FM272100 02009KT P6SM VCSH BKN060 PROB30 2721/2724 4SM -SHRA
      BKN040=

USA.gov is the U.S. government's official web portal to all federal, state and local government web resources and services.